Flight Briefing for CPX712

Departure Arrival
Tokyo-Narita International Airport (RJAA)
Click to view FAA NOTAMS
Incheon International Airport (RKSI)
Click to view FAA NOTAMS
Departure Time Arrival Time
N/A N/A
Aircraft Distance
B767-300BDSF 680nm
Departure METAR Arrival METAR
RJAA 271130Z 16004KT CAVOK 21/18 Q1011 NOSIG RMK A2987 RKSI 271130Z 32013KT 9999 FEW040 17/09 Q1005 NOSIG
Suggested Route
SOUKA Y16 SAPRA Y685 SEL SEL1T


View recent IFR Routes data
Notes



Charts and Procedures

Charts for RJAA
No chart available
Charts for RKSI
No chart available

Windy.com Weather Map